sensor_id;sensor_type;location;lat;lon;timestamp;P1;durP1;ratioP1;P2;durP2;ratioP2
6531;SDS011;3299;42.004;24.868;2023-01-26T00:00:48;4.70;;;4.15;;
6531;SDS011;3299;42.004;24.868;2023-01-26T00:03:14;4.65;;;4.25;;
6531;SDS011;3299;42.004;24.868;2023-01-26T00:05:40;6.65;;;4.47;;
6531;SDS011;3299;42.004;24.868;2023-01-26T00:08:05;4.60;;;4.20;;
6531;SDS011;3299;42.004;24.868;2023-01-26T00:10:33;4.50;;;3.88;;
6531;SDS011;3299;42.004;24.868;2023-01-26T00:13:00;7.05;;;4.18;;
6531;SDS011;3299;42.004;24.868;2023-01-26T00:15:26;6.80;;;4.75;;
6531;SDS011;3299;42.004;24.868;2023-01-26T00:17:51;7.55;;;5.10;;
6531;SDS011;3299;42.004;24.868;2023-01-26T00:20:16;6.25;;;4.93;;
6531;SDS011;3299;42.004;24.868;2023-01-26T00:22:42;5.03;;;4.53;;
6531;SDS011;3299;42.004;24.868;2023-01-26T00:25:08;5.38;;;4.88;;
6531;SDS011;3299;42.004;24.868;2023-01-26T00:27:33;7.13;;;4.82;;
6531;SDS011;3299;42.004;24.868;2023-01-26T00:29:59;5.30;;;4.80;;
6531;SDS011;3299;42.004;24.868;2023-01-26T00:32:24;5.00;;;4.60;;
6531;SDS011;3299;42.004;24.868;2023-01-26T00:34:50;4.40;;;4.00;;
6531;SDS011;3299;42.004;24.868;2023-01-26T00:37:15;7.47;;;4.82;;
6531;SDS011;3299;42.004;24.868;2023-01-26T00:39:41;5.68;;;4.18;;
6531;SDS011;3299;42.004;24.868;2023-01-26T00:42:06;5.22;;;4.38;;
6531;SDS011;3299;42.004;24.868;2023-01-26T00:44:34;5.22;;;4.50;;
6531;SDS011;3299;42.004;24.868;2023-01-26T00:47:01;5.03;;;4.57;;
6531;SDS011;3299;42.004;24.868;2023-01-26T00:49:27;5.55;;;4.93;;
6531;SDS011;3299;42.004;24.868;2023-01-26T00:51:52;5.35;;;4.45;;
6531;SDS011;3299;42.004;24.868;2023-01-26T00:54:17;6.15;;;4.80;;
6531;SDS011;3299;42.004;24.868;2023-01-26T00:56:43;6.03;;;4.95;;
6531;SDS011;3299;42.004;24.868;2023-01-26T00:59:08;5.25;;;4.75;;
6531;SDS011;3299;42.004;24.868;2023-01-26T01:01:34;7.75;;;4.95;;
6531;SDS011;3299;42.004;24.868;2023-01-26T01:03:59;5.70;;;5.10;;
6531;SDS011;3299;42.004;24.868;2023-01-26T01:06:24;8.00;;;5.20;;
6531;SDS011;3299;42.004;24.868;2023-01-26T01:08:52;6.45;;;4.95;;
6531;SDS011;3299;42.004;24.868;2023-01-26T01:11:17;8.60;;;6.07;;
6531;SDS011;3299;42.004;24.868;2023-01-26T01:13:43;9.95;;;6.38;;
6531;SDS011;3299;42.004;24.868;2023-01-26T01:16:09;7.50;;;6.20;;
6531;SDS011;3299;42.004;24.868;2023-01-26T01:18:37;7.78;;;6.03;;
6531;SDS011;3299;42.004;24.868;2023-01-26T01:21:06;9.85;;;6.65;;
6531;SDS011;3299;42.004;24.868;2023-01-26T01:23:34;10.30;;;6.90;;
6531;SDS011;3299;42.004;24.868;2023-01-26T01:25:59;7.07;;;5.78;;
6531;SDS011;3299;42.004;24.868;2023-01-26T01:28:25;8.15;;;5.80;;
6531;SDS011;3299;42.004;24.868;2023-01-26T01:30:51;7.05;;;5.60;;
6531;SDS011;3299;42.004;24.868;2023-01-26T01:33:16;6.68;;;5.85;;
6531;SDS011;3299;42.004;24.868;2023-01-26T01:35:42;7.65;;;5.53;;
6531;SDS011;3299;42.004;24.868;2023-01-26T01:38:07;7.80;;;5.15;;
6531;SDS011;3299;42.004;24.868;2023-01-26T01:40:32;5.47;;;4.72;;
6531;SDS011;3299;42.004;24.868;2023-01-26T01:42:58;6.35;;;4.53;;
6531;SDS011;3299;42.004;24.868;2023-01-26T01:45:40;6.53;;;4.82;;
6531;SDS011;3299;42.004;24.868;2023-01-26T01:48:12;5.75;;;4.70;;
6531;SDS011;3299;42.004;24.868;2023-01-26T01:50:44;5.10;;;3.97;;
6531;SDS011;3299;42.004;24.868;2023-01-26T01:53:11;7.50;;;4.30;;
6531;SDS011;3299;42.004;24.868;2023-01-26T01:55:43;5.05;;;4.50;;
6531;SDS011;3299;42.004;24.868;2023-01-26T01:58:10;5.70;;;4.20;;
6531;SDS011;3299;42.004;24.868;2023-01-26T02:00:39;6.10;;;4.72;;
6531;SDS011;3299;42.004;24.868;2023-01-26T02:03:05;4.70;;;4.20;;
6531;SDS011;3299;42.004;24.868;2023-01-26T02:05:40;4.50;;;4.10;;
6531;SDS011;3299;42.004;24.868;2023-01-26T02:08:46;4.72;;;4.13;;
6531;SDS011;3299;42.004;24.868;2023-01-26T02:11:19;7.20;;;5.07;;
6531;SDS011;3299;42.004;24.868;2023-01-26T02:13:48;5.60;;;4.63;;
6531;SDS011;3299;42.004;24.868;2023-01-26T02:16:15;6.38;;;4.50;;
6531;SDS011;3299;42.004;24.868;2023-01-26T02:18:41;6.28;;;5.00;;
6531;SDS011;3299;42.004;24.868;2023-01-26T02:21:11;6.35;;;5.05;;
6531;SDS011;3299;42.004;24.868;2023-01-26T02:26:25;5.95;;;5.35;;
6531;SDS011;3299;42.004;24.868;2023-01-26T02:28:53;6.13;;;5.05;;
6531;SDS011;3299;42.004;24.868;2023-01-26T02:31:19;6.78;;;5.40;;
6531;SDS011;3299;42.004;24.868;2023-01-26T02:33:47;7.40;;;5.63;;
6531;SDS011;3299;42.004;24.868;2023-01-26T02:36:23;10.23;;;6.75;;
6531;SDS011;3299;42.004;24.868;2023-01-26T02:41:44;10.38;;;5.93;;
6531;SDS011;3299;42.004;24.868;2023-01-26T02:44:30;8.90;;;6.32;;
6531;SDS011;3299;42.004;24.868;2023-01-26T02:46:56;8.75;;;6.47;;
6531;SDS011;3299;42.004;24.868;2023-01-26T02:49:22;8.75;;;6.25;;
6531;SDS011;3299;42.004;24.868;2023-01-26T02:52:06;8.60;;;6.13;;
6531;SDS011;3299;42.004;24.868;2023-01-26T02:54:32;7.47;;;6.50;;
6531;SDS011;3299;42.004;24.868;2023-01-26T02:57:16;7.70;;;5.80;;
6531;SDS011;3299;42.004;24.868;2023-01-26T02:59:41;7.40;;;6.03;;
6531;SDS011;3299;42.004;24.868;2023-01-26T03:02:07;9.35;;;6.57;;
6531;SDS011;3299;42.004;24.868;2023-01-26T03:04:33;10.25;;;7.10;;
6531;SDS011;3299;42.004;24.868;2023-01-26T03:06:58;6.88;;;6.15;;
6531;SDS011;3299;42.004;24.868;2023-01-26T03:09:24;9.88;;;6.47;;
6531;SDS011;3299;42.004;24.868;2023-01-26T03:11:49;10.60;;;6.30;;
6531;SDS011;3299;42.004;24.868;2023-01-26T03:14:15;9.20;;;6.30;;
6531;SDS011;3299;42.004;24.868;2023-01-26T03:16:41;7.05;;;6.07;;
6531;SDS011;3299;42.004;24.868;2023-01-26T03:19:08;6.45;;;5.75;;
6531;SDS011;3299;42.004;24.868;2023-01-26T03:21:55;8.48;;;5.40;;
6531;SDS011;3299;42.004;24.868;2023-01-26T03:24:39;10.90;;;6.35;;
6531;SDS011;3299;42.004;24.868;2023-01-26T03:27:22;11.25;;;6.63;;
6531;SDS011;3299;42.004;24.868;2023-01-26T03:29:51;10.60;;;6.47;;
6531;SDS011;3299;42.004;24.868;2023-01-26T03:32:16;8.52;;;6.13;;
6531;SDS011;3299;42.004;24.868;2023-01-26T03:34:42;8.98;;;5.90;;
6531;SDS011;3299;42.004;24.868;2023-01-26T03:37:07;8.57;;;6.18;;
6531;SDS011;3299;42.004;24.868;2023-01-26T03:39:33;9.52;;;6.00;;
6531;SDS011;3299;42.004;24.868;2023-01-26T03:42:16;7.65;;;5.85;;
6531;SDS011;3299;42.004;24.868;2023-01-26T03:45:00;8.90;;;6.65;;
6531;SDS011;3299;42.004;24.868;2023-01-26T03:47:44;9.07;;;6.05;;
6531;SDS011;3299;42.004;24.868;2023-01-26T03:50:28;8.00;;;5.50;;
6531;SDS011;3299;42.004;24.868;2023-01-26T03:53:16;6.90;;;5.90;;
6531;SDS011;3299;42.004;24.868;2023-01-26T03:56:01;9.27;;;5.95;;
6531;SDS011;3299;42.004;24.868;2023-01-26T03:58:51;6.68;;;5.68;;
6531;SDS011;3299;42.004;24.868;2023-01-26T04:01:21;7.65;;;5.75;;
6531;SDS011;3299;42.004;24.868;2023-01-26T04:03:57;5.43;;;4.57;;
6531;SDS011;3299;42.004;24.868;2023-01-26T04:06:42;7.40;;;4.95;;
6531;SDS011;3299;42.004;24.868;2023-01-26T04:09:29;8.00;;;5.45;;
6531;SDS011;3299;42.004;24.868;2023-01-26T04:11:55;8.05;;;5.50;;
6531;SDS011;3299;42.004;24.868;2023-01-26T04:14:20;6.10;;;5.50;;
6531;SDS011;3299;42.004;24.868;2023-01-26T04:17:04;7.15;;;5.72;;
6531;SDS011;3299;42.004;24.868;2023-01-26T04:19:48;6.65;;;5.47;;
6531;SDS011;3299;42.004;24.868;2023-01-26T04:22:39;6.53;;;5.35;;
6531;SDS011;3299;42.004;24.868;2023-01-26T04:25:10;6.70;;;5.13;;
6531;SDS011;3299;42.004;24.868;2023-01-26T04:27:37;7.40;;;5.68;;
6531;SDS011;3299;42.004;24.868;2023-01-26T04:30:03;6.93;;;5.32;;
6531;SDS011;3299;42.004;24.868;2023-01-26T04:32:29;10.15;;;6.63;;
6531;SDS011;3299;42.004;24.868;2023-01-26T04:34:55;7.43;;;5.60;;
6531;SDS011;3299;42.004;24.868;2023-01-26T04:37:20;18.60;;;10.55;;
6531;SDS011;3299;42.004;24.868;2023-01-26T04:39:46;15.80;;;9.52;;
6531;SDS011;3299;42.004;24.868;2023-01-26T04:42:12;19.17;;;10.00;;
6531;SDS011;3299;42.004;24.868;2023-01-26T04:44:37;18.30;;;10.40;;
6531;SDS011;3299;42.004;24.868;2023-01-26T04:47:03;10.30;;;7.65;;
6531;SDS011;3299;42.004;24.868;2023-01-26T04:49:28;10.15;;;6.97;;
6531;SDS011;3299;42.004;24.868;2023-01-26T04:51:53;11.35;;;6.68;;
6531;SDS011;3299;42.004;24.868;2023-01-26T04:54:19;12.95;;;7.93;;
6531;SDS011;3299;42.004;24.868;2023-01-26T04:56:44;13.23;;;8.45;;
6531;SDS011;3299;42.004;24.868;2023-01-26T04:59:10;10.15;;;7.63;;
6531;SDS011;3299;42.004;24.868;2023-01-26T05:01:36;10.90;;;7.53;;
6531;SDS011;3299;42.004;24.868;2023-01-26T05:04:02;9.70;;;7.20;;
6531;SDS011;3299;42.004;24.868;2023-01-26T05:06:29;8.25;;;6.90;;
6531;SDS011;3299;42.004;24.868;2023-01-26T05:08:54;9.98;;;7.18;;
6531;SDS011;3299;42.004;24.868;2023-01-26T05:11:20;7.85;;;6.18;;
6531;SDS011;3299;42.004;24.868;2023-01-26T05:13:45;8.02;;;6.28;;
6531;SDS011;3299;42.004;24.868;2023-01-26T05:16:11;8.07;;;5.72;;
6531;SDS011;3299;42.004;24.868;2023-01-26T05:18:38;7.90;;;6.00;;
6531;SDS011;3299;42.004;24.868;2023-01-26T05:21:04;6.30;;;5.70;;
6531;SDS011;3299;42.004;24.868;2023-01-26T05:23:30;7.68;;;6.43;;
6531;SDS011;3299;42.004;24.868;2023-01-26T05:25:55;12.65;;;7.47;;
6531;SDS011;3299;42.004;24.868;2023-01-26T05:28:21;10.30;;;7.07;;
6531;SDS011;3299;42.004;24.868;2023-01-26T05:30:46;12.52;;;9.13;;
6531;SDS011;3299;42.004;24.868;2023-01-26T05:33:12;11.20;;;8.10;;
6531;SDS011;3299;42.004;24.868;2023-01-26T05:35:37;10.90;;;7.15;;
6531;SDS011;3299;42.004;24.868;2023-01-26T05:38:03;10.02;;;7.50;;
6531;SDS011;3299;42.004;24.868;2023-01-26T05:40:29;11.80;;;7.35;;
6531;SDS011;3299;42.004;24.868;2023-01-26T05:42:54;18.52;;;11.18;;
6531;SDS011;3299;42.004;24.868;2023-01-26T05:45:20;21.17;;;13.25;;
6531;SDS011;3299;42.004;24.868;2023-01-26T05:47:46;18.92;;;10.40;;
6531;SDS011;3299;42.004;24.868;2023-01-26T05:50:13;17.40;;;11.63;;
6531;SDS011;3299;42.004;24.868;2023-01-26T05:52:39;17.42;;;11.25;;
6531;SDS011;3299;42.004;24.868;2023-01-26T05:55:05;16.27;;;10.43;;
6531;SDS011;3299;42.004;24.868;2023-01-26T05:57:31;12.32;;;8.23;;
6531;SDS011;3299;42.004;24.868;2023-01-26T05:59:57;13.57;;;7.80;;
6531;SDS011;3299;42.004;24.868;2023-01-26T06:02:22;10.55;;;7.10;;
6531;SDS011;3299;42.004;24.868;2023-01-26T06:04:48;12.50;;;7.60;;
6531;SDS011;3299;42.004;24.868;2023-01-26T06:07:13;11.13;;;7.20;;
6531;SDS011;3299;42.004;24.868;2023-01-26T06:09:39;9.07;;;6.72;;
6531;SDS011;3299;42.004;24.868;2023-01-26T06:12:06;8.98;;;7.00;;
6531;SDS011;3299;42.004;24.868;2023-01-26T06:14:37;9.13;;;7.25;;
6531;SDS011;3299;42.004;24.868;2023-01-26T06:17:02;11.80;;;8.55;;
6531;SDS011;3299;42.004;24.868;2023-01-26T06:19:28;9.60;;;6.80;;
6531;SDS011;3299;42.004;24.868;2023-01-26T06:21:53;10.93;;;7.97;;
6531;SDS011;3299;42.004;24.868;2023-01-26T06:24:18;15.57;;;9.13;;
6531;SDS011;3299;42.004;24.868;2023-01-26T06:26:45;13.05;;;7.47;;
6531;SDS011;3299;42.004;24.868;2023-01-26T06:29:12;11.88;;;8.52;;
6531;SDS011;3299;42.004;24.868;2023-01-26T06:31:38;14.27;;;9.35;;
6531;SDS011;3299;42.004;24.868;2023-01-26T06:34:04;14.10;;;9.77;;
6531;SDS011;3299;42.004;24.868;2023-01-26T06:36:29;13.00;;;9.52;;
6531;SDS011;3299;42.004;24.868;2023-01-26T06:38:55;12.18;;;8.88;;
6531;SDS011;3299;42.004;24.868;2023-01-26T06:41:20;13.57;;;9.32;;
6531;SDS011;3299;42.004;24.868;2023-01-26T06:43:46;13.07;;;8.85;;
6531;SDS011;3299;42.004;24.868;2023-01-26T06:46:13;15.48;;;9.60;;
6531;SDS011;3299;42.004;24.868;2023-01-26T06:48:39;17.77;;;10.13;;
6531;SDS011;3299;42.004;24.868;2023-01-26T06:53:46;12.57;;;8.77;;
6531;SDS011;3299;42.004;24.868;2023-01-26T06:56:22;17.05;;;10.57;;
6531;SDS011;3299;42.004;24.868;2023-01-26T06:58:48;16.77;;;11.13;;
6531;SDS011;3299;42.004;24.868;2023-01-26T07:01:15;14.23;;;9.45;;
6531;SDS011;3299;42.004;24.868;2023-01-26T07:03:42;17.80;;;10.27;;
6531;SDS011;3299;42.004;24.868;2023-01-26T07:06:07;18.48;;;11.93;;
6531;SDS011;3299;42.004;24.868;2023-01-26T07:08:35;16.10;;;12.20;;
6531;SDS011;3299;42.004;24.868;2023-01-26T07:11:03;18.75;;;11.18;;
6531;SDS011;3299;42.004;24.868;2023-01-26T07:13:29;20.52;;;10.60;;
6531;SDS011;3299;42.004;24.868;2023-01-26T07:18:27;16.10;;;9.77;;
6531;SDS011;3299;42.004;24.868;2023-01-26T07:20:52;15.30;;;9.18;;
6531;SDS011;3299;42.004;24.868;2023-01-26T07:23:17;21.33;;;13.15;;
6531;SDS011;3299;42.004;24.868;2023-01-26T07:25:43;17.67;;;12.20;;
6531;SDS011;3299;42.004;24.868;2023-01-26T07:28:08;25.98;;;15.98;;
6531;SDS011;3299;42.004;24.868;2023-01-26T07:30:34;19.23;;;12.93;;
6531;SDS011;3299;42.004;24.868;2023-01-26T07:33:00;20.45;;;13.35;;
6531;SDS011;3299;42.004;24.868;2023-01-26T07:35:26;21.63;;;11.68;;
6531;SDS011;3299;42.004;24.868;2023-01-26T07:37:53;14.63;;;10.85;;
6531;SDS011;3299;42.004;24.868;2023-01-26T07:40:19;14.20;;;9.82;;
6531;SDS011;3299;42.004;24.868;2023-01-26T07:42:44;13.02;;;9.15;;
6531;SDS011;3299;42.004;24.868;2023-01-26T07:45:10;15.23;;;10.02;;
6531;SDS011;3299;42.004;24.868;2023-01-26T07:47:35;19.25;;;12.10;;
6531;SDS011;3299;42.004;24.868;2023-01-26T07:50:01;16.92;;;10.18;;
6531;SDS011;3299;42.004;24.868;2023-01-26T07:52:29;16.27;;;11.52;;
6531;SDS011;3299;42.004;24.868;2023-01-26T07:54:55;15.90;;;11.10;;
6531;SDS011;3299;42.004;24.868;2023-01-26T07:57:20;17.25;;;11.50;;
6531;SDS011;3299;42.004;24.868;2023-01-26T07:59:46;18.35;;;11.15;;
6531;SDS011;3299;42.004;24.868;2023-01-26T08:02:11;21.95;;;10.85;;
6531;SDS011;3299;42.004;24.868;2023-01-26T08:04:36;15.52;;;10.13;;
6531;SDS011;3299;42.004;24.868;2023-01-26T08:07:02;17.60;;;10.57;;
6531;SDS011;3299;42.004;24.868;2023-01-26T08:09:27;22.33;;;12.90;;
6531;SDS011;3299;42.004;24.868;2023-01-26T08:11:55;23.70;;;13.25;;
6531;SDS011;3299;42.004;24.868;2023-01-26T08:14:21;18.98;;;12.25;;
6531;SDS011;3299;42.004;24.868;2023-01-26T08:16:46;15.73;;;11.02;;
6531;SDS011;3299;42.004;24.868;2023-01-26T08:19:12;14.13;;;10.05;;
6531;SDS011;3299;42.004;24.868;2023-01-26T08:21:37;16.10;;;10.82;;
6531;SDS011;3299;42.004;24.868;2023-01-26T08:24:02;14.07;;;9.95;;
6531;SDS011;3299;42.004;24.868;2023-01-26T08:26:28;21.50;;;14.00;;
6531;SDS011;3299;42.004;24.868;2023-01-26T08:28:54;16.08;;;10.93;;
6531;SDS011;3299;42.004;24.868;2023-01-26T08:31:19;14.18;;;10.50;;
6531;SDS011;3299;42.004;24.868;2023-01-26T08:33:48;12.70;;;9.73;;
6531;SDS011;3299;42.004;24.868;2023-01-26T08:36:15;14.27;;;9.88;;
6531;SDS011;3299;42.004;24.868;2023-01-26T08:38:42;16.58;;;11.77;;
6531;SDS011;3299;42.004;24.868;2023-01-26T08:41:08;31.63;;;19.33;;
6531;SDS011;3299;42.004;24.868;2023-01-26T08:43:34;50.95;;;27.52;;
6531;SDS011;3299;42.004;24.868;2023-01-26T08:46:00;22.35;;;16.13;;
6531;SDS011;3299;42.004;24.868;2023-01-26T08:48:25;16.80;;;12.25;;
6531;SDS011;3299;42.004;24.868;2023-01-26T08:50:54;23.50;;;15.30;;
6531;SDS011;3299;42.004;24.868;2023-01-26T08:53:21;20.02;;;14.55;;
6531;SDS011;3299;42.004;24.868;2023-01-26T08:55:47;20.02;;;14.60;;
6531;SDS011;3299;42.004;24.868;2023-01-26T08:58:15;21.05;;;13.48;;
6531;SDS011;3299;42.004;24.868;2023-01-26T09:00:41;23.60;;;13.90;;
6531;SDS011;3299;42.004;24.868;2023-01-26T09:03:06;22.20;;;13.43;;
6531;SDS011;3299;42.004;24.868;2023-01-26T09:05:33;20.13;;;14.38;;
6531;SDS011;3299;42.004;24.868;2023-01-26T09:08:00;20.77;;;13.75;;
6531;SDS011;3299;42.004;24.868;2023-01-26T09:10:25;18.15;;;11.75;;
6531;SDS011;3299;42.004;24.868;2023-01-26T09:12:51;17.55;;;10.90;;
6531;SDS011;3299;42.004;24.868;2023-01-26T09:15:16;21.80;;;17.65;;
6531;SDS011;3299;42.004;24.868;2023-01-26T09:17:42;16.50;;;11.85;;
6531;SDS011;3299;42.004;24.868;2023-01-26T09:20:10;17.42;;;10.55;;
6531;SDS011;3299;42.004;24.868;2023-01-26T09:22:36;15.88;;;9.80;;
6531;SDS011;3299;42.004;24.868;2023-01-26T09:25:01;15.00;;;10.73;;
6531;SDS011;3299;42.004;24.868;2023-01-26T09:27:27;15.63;;;11.98;;
6531;SDS011;3299;42.004;24.868;2023-01-26T09:29:53;17.55;;;12.10;;
6531;SDS011;3299;42.004;24.868;2023-01-26T09:32:19;17.92;;;12.63;;
6531;SDS011;3299;42.004;24.868;2023-01-26T09:34:44;14.82;;;11.35;;
6531;SDS011;3299;42.004;24.868;2023-01-26T09:37:10;13.77;;;9.18;;
6531;SDS011;3299;42.004;24.868;2023-01-26T09:39:35;19.60;;;14.27;;
6531;SDS011;3299;42.004;24.868;2023-01-26T09:56:12;16.38;;;12.45;;
6531;SDS011;3299;42.004;24.868;2023-01-26T09:58:41;17.88;;;12.13;;
6531;SDS011;3299;42.004;24.868;2023-01-26T10:04:17;17.95;;;13.02;;
6531;SDS011;3299;42.004;24.868;2023-01-26T10:06:56;29.25;;;19.88;;
6531;SDS011;3299;42.004;24.868;2023-01-26T10:09:24;25.27;;;18.60;;
6531;SDS011;3299;42.004;24.868;2023-01-26T10:11:55;29.17;;;19.90;;
6531;SDS011;3299;42.004;24.868;2023-01-26T10:16:59;23.88;;;15.70;;
6531;SDS011;3299;42.004;24.868;2023-01-26T10:22:06;26.77;;;17.30;;
6531;SDS011;3299;42.004;24.868;2023-01-26T10:24:38;22.02;;;16.20;;
6531;SDS011;3299;42.004;24.868;2023-01-26T10:27:04;31.63;;;18.08;;
6531;SDS011;3299;42.004;24.868;2023-01-26T10:29:34;37.90;;;22.33;;
6531;SDS011;3299;42.004;24.868;2023-01-26T10:31:59;25.88;;;16.50;;
6531;SDS011;3299;42.004;24.868;2023-01-26T10:34:25;31.92;;;20.50;;
6531;SDS011;3299;42.004;24.868;2023-01-26T10:36:52;26.17;;;16.45;;
6531;SDS011;3299;42.004;24.868;2023-01-26T10:39:26;22.65;;;16.10;;
6531;SDS011;3299;42.004;24.868;2023-01-26T10:41:55;22.92;;;15.73;;
6531;SDS011;3299;42.004;24.868;2023-01-26T10:44:30;28.73;;;19.33;;
6531;SDS011;3299;42.004;24.868;2023-01-26T10:47:17;22.90;;;15.82;;
6531;SDS011;3299;42.004;24.868;2023-01-26T10:49:45;24.13;;;16.55;;
6531;SDS011;3299;42.004;24.868;2023-01-26T10:52:18;23.38;;;16.67;;
6531;SDS011;3299;42.004;24.868;2023-01-26T10:54:44;147.90;;;75.22;;
6531;SDS011;3299;42.004;24.868;2023-01-26T10:59:42;29.63;;;20.25;;
6531;SDS011;3299;42.004;24.868;2023-01-26T11:04:38;24.13;;;16.90;;
6531;SDS011;3299;42.004;24.868;2023-01-26T11:07:23;22.45;;;17.00;;
6531;SDS011;3299;42.004;24.868;2023-01-26T11:09:51;20.70;;;15.40;;
6531;SDS011;3299;42.004;24.868;2023-01-26T11:12:17;22.08;;;15.65;;
6531;SDS011;3299;42.004;24.868;2023-01-26T11:14:58;23.10;;;16.35;;
6531;SDS011;3299;42.004;24.868;2023-01-26T11:17:25;25.23;;;17.83;;
6531;SDS011;3299;42.004;24.868;2023-01-26T11:20:06;22.95;;;15.95;;
6531;SDS011;3299;42.004;24.868;2023-01-26T11:22:54;17.45;;;14.13;;
6531;SDS011;3299;42.004;24.868;2023-01-26T11:25:39;16.17;;;12.43;;
6531;SDS011;3299;42.004;24.868;2023-01-26T11:28:17;21.92;;;14.48;;
6531;SDS011;3299;42.004;24.868;2023-01-26T11:31:00;24.38;;;16.77;;
6531;SDS011;3299;42.004;24.868;2023-01-26T11:39:18;21.50;;;15.23;;
6531;SDS011;3299;42.004;24.868;2023-01-26T11:47:12;10.57;;;7.50;;
6531;SDS011;3299;42.004;24.868;2023-01-26T12:00:52;38.33;;;18.95;;
6531;SDS011;3299;42.004;24.868;2023-01-26T12:03:24;28.75;;;15.27;;
6531;SDS011;3299;42.004;24.868;2023-01-26T12:06:03;24.05;;;13.98;;
6531;SDS011;3299;42.004;24.868;2023-01-26T12:11:07;30.55;;;15.82;;
6531;SDS011;3299;42.004;24.868;2023-01-26T12:19:35;98.28;;;37.17;;
6531;SDS011;3299;42.004;24.868;2023-01-26T12:22:11;27.13;;;14.32;;
6531;SDS011;3299;42.004;24.868;2023-01-26T12:24:49;179.48;;;56.33;;
6531;SDS011;3299;42.004;24.868;2023-01-26T12:27:21;188.48;;;61.55;;
6531;SDS011;3299;42.004;24.868;2023-01-26T12:32:47;136.27;;;48.30;;
6531;SDS011;3299;42.004;24.868;2023-01-26T12:35:12;45.70;;;22.17;;
6531;SDS011;3299;42.004;24.868;2023-01-26T12:45:41;55.88;;;22.75;;
6531;SDS011;3299;42.004;24.868;2023-01-26T12:48:23;19.52;;;11.55;;
6531;SDS011;3299;42.004;24.868;2023-01-26T12:50:59;39.90;;;25.25;;
6531;SDS011;3299;42.004;24.868;2023-01-26T12:53:32;34.53;;;21.23;;
6531;SDS011;3299;42.004;24.868;2023-01-26T12:56:09;24.83;;;17.10;;
6531;SDS011;3299;42.004;24.868;2023-01-26T12:58:43;13.88;;;10.82;;
6531;SDS011;3299;42.004;24.868;2023-01-26T13:01:12;7.97;;;7.13;;
6531;SDS011;3299;42.004;24.868;2023-01-26T13:03:44;13.82;;;9.77;;
6531;SDS011;3299;42.004;24.868;2023-01-26T13:08:50;13.07;;;9.10;;
6531;SDS011;3299;42.004;24.868;2023-01-26T13:27:44;7.53;;;6.72;;
6531;SDS011;3299;42.004;24.868;2023-01-26T13:35:28;16.73;;;10.63;;
6531;SDS011;3299;42.004;24.868;2023-01-26T13:38:00;15.82;;;10.32;;
6531;SDS011;3299;42.004;24.868;2023-01-26T13:40:30;14.10;;;8.65;;
6531;SDS011;3299;42.004;24.868;2023-01-26T13:48:13;8.98;;;7.60;;
6531;SDS011;3299;42.004;24.868;2023-01-26T13:50:42;10.45;;;8.45;;
6531;SDS011;3299;42.004;24.868;2023-01-26T13:54:13;37.55;;;22.65;;
6531;SDS011;3299;42.004;24.868;2023-01-26T13:56:40;23.48;;;16.05;;
6531;SDS011;3299;42.004;24.868;2023-01-26T14:01:46;9.45;;;7.97;;
6531;SDS011;3299;42.004;24.868;2023-01-26T14:04:20;10.10;;;8.38;;
6531;SDS011;3299;42.004;24.868;2023-01-26T14:09:18;9.60;;;8.18;;
6531;SDS011;3299;42.004;24.868;2023-01-26T14:11:45;11.35;;;8.75;;
6531;SDS011;3299;42.004;24.868;2023-01-26T14:14:22;11.38;;;8.82;;
6531;SDS011;3299;42.004;24.868;2023-01-26T14:16:49;9.30;;;8.40;;
6531;SDS011;3299;42.004;24.868;2023-01-26T14:19:16;9.30;;;7.90;;
6531;SDS011;3299;42.004;24.868;2023-01-26T14:21:48;9.70;;;7.93;;
6531;SDS011;3299;42.004;24.868;2023-01-26T14:24:16;20.27;;;15.45;;
6531;SDS011;3299;42.004;24.868;2023-01-26T14:26:42;20.17;;;15.18;;
6531;SDS011;3299;42.004;24.868;2023-01-26T14:29:14;21.60;;;15.85;;
6531;SDS011;3299;42.004;24.868;2023-01-26T14:31:45;26.63;;;19.60;;
6531;SDS011;3299;42.004;24.868;2023-01-26T14:34:13;22.05;;;16.80;;
6531;SDS011;3299;42.004;24.868;2023-01-26T14:36:43;16.13;;;14.05;;
6531;SDS011;3299;42.004;24.868;2023-01-26T14:39:16;19.10;;;15.68;;
6531;SDS011;3299;42.004;24.868;2023-01-26T14:41:43;19.08;;;14.45;;
6531;SDS011;3299;42.004;24.868;2023-01-26T14:44:10;17.65;;;15.05;;
6531;SDS011;3299;42.004;24.868;2023-01-26T14:47:36;18.52;;;14.40;;
6531;SDS011;3299;42.004;24.868;2023-01-26T14:52:22;12.45;;;9.93;;
6531;SDS011;3299;42.004;24.868;2023-01-26T14:54:49;14.15;;;11.63;;
6531;SDS011;3299;42.004;24.868;2023-01-26T14:57:18;16.65;;;14.80;;
6531;SDS011;3299;42.004;24.868;2023-01-26T14:59:48;31.80;;;21.70;;
6531;SDS011;3299;42.004;24.868;2023-01-26T15:02:33;17.50;;;13.43;;
6531;SDS011;3299;42.004;24.868;2023-01-26T15:05:19;20.75;;;14.07;;
6531;SDS011;3299;42.004;24.868;2023-01-26T15:10:28;45.25;;;23.02;;
6531;SDS011;3299;42.004;24.868;2023-01-26T15:13:04;28.73;;;18.40;;
6531;SDS011;3299;42.004;24.868;2023-01-26T15:15:39;29.77;;;18.80;;
6531;SDS011;3299;42.004;24.868;2023-01-26T15:20:51;15.18;;;11.32;;
6531;SDS011;3299;42.004;24.868;2023-01-26T15:24:00;23.33;;;16.90;;
6531;SDS011;3299;42.004;24.868;2023-01-26T15:26:26;18.55;;;13.55;;
6531;SDS011;3299;42.004;24.868;2023-01-26T15:29:04;14.27;;;11.02;;
6531;SDS011;3299;42.004;24.868;2023-01-26T15:31:40;15.73;;;11.68;;
6531;SDS011;3299;42.004;24.868;2023-01-26T15:34:25;17.90;;;14.05;;
6531;SDS011;3299;42.004;24.868;2023-01-26T15:36:58;24.77;;;14.77;;
6531;SDS011;3299;42.004;24.868;2023-01-26T15:39:24;15.40;;;11.88;;
6531;SDS011;3299;42.004;24.868;2023-01-26T15:44:35;43.28;;;26.08;;
6531;SDS011;3299;42.004;24.868;2023-01-26T15:47:01;47.38;;;29.70;;
6531;SDS011;3299;42.004;24.868;2023-01-26T15:49:26;45.80;;;27.98;;
6531;SDS011;3299;42.004;24.868;2023-01-26T15:51:53;41.10;;;27.85;;
6531;SDS011;3299;42.004;24.868;2023-01-26T15:54:18;59.28;;;37.30;;
6531;SDS011;3299;42.004;24.868;2023-01-26T15:56:43;57.70;;;36.58;;
6531;SDS011;3299;42.004;24.868;2023-01-26T15:59:09;67.75;;;42.65;;
6531;SDS011;3299;42.004;24.868;2023-01-26T16:01:34;78.25;;;46.90;;
6531;SDS011;3299;42.004;24.868;2023-01-26T16:04:00;83.20;;;51.40;;
6531;SDS011;3299;42.004;24.868;2023-01-26T16:06:26;86.63;;;52.25;;
6531;SDS011;3299;42.004;24.868;2023-01-26T16:08:54;50.05;;;36.42;;
6531;SDS011;3299;42.004;24.868;2023-01-26T16:11:20;49.58;;;32.80;;
6531;SDS011;3299;42.004;24.868;2023-01-26T16:13:53;42.13;;;31.52;;
6531;SDS011;3299;42.004;24.868;2023-01-26T16:16:20;53.00;;;32.70;;
6531;SDS011;3299;42.004;24.868;2023-01-26T16:18:45;51.08;;;34.55;;
6531;SDS011;3299;42.004;24.868;2023-01-26T16:21:18;77.70;;;48.33;;
6531;SDS011;3299;42.004;24.868;2023-01-26T16:23:46;74.22;;;45.65;;
6531;SDS011;3299;42.004;24.868;2023-01-26T16:26:13;91.57;;;51.72;;
6531;SDS011;3299;42.004;24.868;2023-01-26T16:28:40;61.22;;;38.13;;
6531;SDS011;3299;42.004;24.868;2023-01-26T16:31:15;54.60;;;36.17;;
6531;SDS011;3299;42.004;24.868;2023-01-26T16:33:43;63.65;;;39.38;;
6531;SDS011;3299;42.004;24.868;2023-01-26T16:36:10;56.05;;;34.63;;
6531;SDS011;3299;42.004;24.868;2023-01-26T16:38:37;46.22;;;30.63;;
6531;SDS011;3299;42.004;24.868;2023-01-26T16:41:02;51.28;;;32.95;;
6531;SDS011;3299;42.004;24.868;2023-01-26T16:43:28;53.60;;;35.17;;
6531;SDS011;3299;42.004;24.868;2023-01-26T16:45:54;58.70;;;36.33;;
6531;SDS011;3299;42.004;24.868;2023-01-26T16:48:20;57.50;;;35.78;;
6531;SDS011;3299;42.004;24.868;2023-01-26T16:50:46;54.25;;;36.88;;
6531;SDS011;3299;42.004;24.868;2023-01-26T16:53:24;48.85;;;32.47;;
6531;SDS011;3299;42.004;24.868;2023-01-26T16:55:50;55.58;;;34.40;;
6531;SDS011;3299;42.004;24.868;2023-01-26T16:58:15;55.47;;;34.30;;
6531;SDS011;3299;42.004;24.868;2023-01-26T17:00:41;56.70;;;36.38;;
6531;SDS011;3299;42.004;24.868;2023-01-26T17:03:07;45.40;;;30.95;;